< < Back
Terminal Aerodrome Forecast


Current Version              Previous Versions:   1  2  3  4  5  6  7  8  9  

Terminal Aerodrome Forecast

441
FTUS42 KCHS 311700
TAFSAV
TAF
KSAV 311731Z 3118/0118 36005KT P6SM SCT045
     FM311900 32006KT P6SM FEW045
     FM010000 28005KT P6SM SKC
     FM010800 27013G20KT P6SM SCT025 BKN050
     FM011400 28022G28KT P6SM SCT040=



Latest METAR

947
SAUS80 KWBC 010600 CCA
MTRSAV
METAR KSAV 010553Z AUTO 27008KT 10SM CLR 12/06 A2981 RMK AO2 SLP092
T01220061 10172 20122 56008 TSNO


USA.gov is the U.S. government's official web portal to all federal, state and local government web resources and services.